Time;durP1;ratioP1;P1;durP2;ratioP2;P2;SDS_P1;SDS_P2;PMS_P1;PMS_P2;Temp;Humidity;BMP_temperature;BMP_pressure;BME280_temperature;BME280_humidity;BME280_pressure;Samples;Min_cycle;Max_cycle;Signal;HPM_P1;HPM_P2
2022/06/06 00:01:53;;;;;;;6.18;5.97;;;;;;;16.87;100.00;100902.25;5039181;28;20480;-61
2022/06/06 00:04:21;;;;;;;6.00;5.80;;;;;;;16.89;100.00;100908.22;5041582;28;20033;-62
2022/06/06 00:06:46;;;;;;;6.18;5.97;;;;;;;16.91;100.00;100911.53;5050798;28;20435;-61
2022/06/06 00:09:14;;;;;;;6.32;6.03;;;;;;;16.93;100.00;100905.97;5051206;28;20082;-61
2022/06/06 00:11:41;;;;;;;6.35;6.05;;;;;;;16.90;100.00;100906.41;5053178;28;20521;-61
2022/06/06 00:14:08;;;;;;;6.20;6.00;;;;;;;16.92;100.00;100901.66;5054598;28;20033;-60
2022/06/06 00:16:35;;;;;;;6.00;5.80;;;;;;;16.87;100.00;100906.78;5054369;28;20032;-60
2022/06/06 00:19:05;;;;;;;6.10;5.90;;;;;;;16.86;100.00;100905.97;5038124;28;20034;-61
2022/06/06 00:21:31;;;;;;;6.40;6.10;;;;;;;16.81;100.00;100906.56;5058950;28;20020;-61
2022/06/06 00:23:59;;;;;;;6.20;6.00;;;;;;;16.89;100.00;100912.75;5054743;28;20388;-61
2022/06/06 00:26:28;;;;;;;6.30;6.05;;;;;;;16.86;100.00;100911.31;5053923;28;20021;-59
2022/06/06 00:28:55;;;;;;;6.50;6.20;;;;;;;16.88;100.00;100908.44;5053676;28;20387;-61
2022/06/06 00:36:50;;;;;;;6.10;5.90;;;;;;;16.88;100.00;100905.75;5048086;28;20396;-60
2022/06/06 00:39:18;;;;;;;6.13;5.93;;;;;;;16.90;100.00;100917.13;5057816;28;20560;-60
2022/06/06 00:41:47;;;;;;;5.95;5.75;;;;;;;16.85;100.00;100912.38;5054452;28;20387;-61
2022/06/06 00:44:21;;;;;;;5.93;5.72;;;;;;;16.80;100.00;100904.09;5053713;28;20083;-60
2022/06/06 00:47:02;;;;;;;;;;;;;;;16.71;100.00;100905.34;5053724;28;20095;-61
2022/06/06 00:49:40;;;;;;;6.22;6.00;;;;;;;16.74;100.00;100912.97;5053934;28;19924;-60
2022/06/06 00:52:13;;;;;;;6.10;5.90;;;;;;;16.71;100.00;100906.19;5054005;28;20086;-60
2022/06/06 00:54:40;;;;;;;6.40;6.10;;;;;;;16.72;100.00;100912.34;5054370;28;20024;-60
2022/06/06 00:57:13;;;;;;;6.40;6.10;;;;;;;16.71;100.00;100908.84;5053948;28;20025;-60
2022/06/06 00:59:40;;;;;;;6.60;6.30;;;;;;;16.68;100.00;100906.56;5053700;28;20089;-60
2022/06/06 01:02:13;;;;;;;6.20;6.00;;;;;;;16.66;100.00;100907.78;5052929;28;20029;-59
2022/06/06 01:04:40;;;;;;;6.43;6.13;;;;;;;16.70;100.00;100904.53;5052009;28;20025;-60
2022/06/06 01:07:09;;;;;;;6.00;5.80;;;;;;;16.57;100.00;100899.94;5053470;28;20048;-60
2022/06/06 01:09:36;;;;;;;6.20;5.97;;;;;;;16.67;100.00;100906.75;5053446;28;20056;-59
2022/06/06 01:12:07;;;;;;;6.00;5.80;;;;;;;16.69;100.00;100902.03;5054174;28;20086;-60
2022/06/06 01:14:39;;;;;;;6.20;6.00;;;;;;;16.61;100.00;100899.56;5053846;28;20020;-61
2022/06/06 01:17:15;;;;;;;6.35;6.05;;;;;;;16.64;100.00;100901.81;5051010;28;20027;-60
2022/06/06 01:19:58;;;;;;;5.95;5.75;;;;;;;16.67;100.00;100906.75;5052574;28;20028;-59
2022/06/06 01:22:42;;;;;;;6.03;5.82;;;;;;;16.71;100.00;100908.03;5043407;28;20029;-60
2022/06/06 01:25:24;;;;;;;6.32;6.03;;;;;;;16.67;100.00;100902.25;5053349;28;20103;-59
2022/06/06 01:28:08;;;;;;;6.18;5.97;;;;;;;16.68;100.00;100897.72;5044208;28;20079;-59
2022/06/06 01:30:46;;;;;;;6.25;6.00;;;;;;;16.58;100.00;100890.06;5052641;28;20020;-59
2022/06/06 01:33:14;;;;;;;6.25;6.00;;;;;;;16.63;100.00;100890.28;5052884;28;20032;-59
2022/06/06 01:35:42;;;;;;;6.00;5.80;;;;;;;16.53;100.00;100892.53;5048017;28;20116;-61
2022/06/06 01:38:11;;;;;;;5.90;5.70;;;;;;;16.64;100.00;100897.28;5046047;28;20031;-60
2022/06/06 01:40:57;;;;;;;6.00;5.80;;;;;;;16.63;100.00;100892.94;5052952;28;20033;-59
2022/06/06 01:43:41;;;;;;;6.20;6.00;;;;;;;16.59;100.00;100895.19;5040606;28;20060;-59
2022/06/06 01:46:17;;;;;;;6.05;5.85;;;;;;;16.62;100.00;100890.50;5056953;28;20047;-59
2022/06/06 01:48:44;;;;;;;6.10;5.90;;;;;;;16.58;100.00;100896.25;5052680;28;20036;-61
2022/06/06 01:51:16;;;;;;;6.40;6.10;;;;;;;16.48;100.00;100898.50;5051528;28;20029;-61
2022/06/06 01:53:42;;;;;;;6.20;6.00;;;;;;;16.53;100.00;100896.06;5051742;28;20037;-60
2022/06/06 01:56:13;;;;;;;6.50;6.20;;;;;;;16.53;100.00;100889.88;5044354;28;20079;-61
2022/06/06 01:58:39;;;;;;;6.05;5.85;;;;;;;16.55;100.00;100893.16;5039675;28;20028;-60
2022/06/06 02:01:05;;;;;;;6.00;5.80;;;;;;;16.51;100.00;100899.94;5052745;28;20025;-60
2022/06/06 02:03:32;;;;;;;6.20;6.00;;;;;;;16.50;100.00;100899.13;5057069;28;20032;-60
2022/06/06 02:05:57;;;;;;;6.28;6.00;;;;;;;16.51;100.00;100906.13;5052587;28;20029;-61
2022/06/06 02:08:23;;;;;;;6.50;6.20;;;;;;;16.53;100.00;100906.75;5052663;28;20029;-61
2022/06/06 02:10:49;;;;;;;6.28;6.03;;;;;;;16.49;100.00;100904.69;5051534;28;20025;-61
2022/06/06 02:13:15;;;;;;;6.20;6.00;;;;;;;16.49;100.00;100899.31;5050615;28;20025;-61
2022/06/06 02:15:42;;;;;;;6.35;6.07;;;;;;;16.47;100.00;100904.06;5052517;28;20448;-60
2022/06/06 02:18:08;;;;;;;5.88;5.68;;;;;;;16.52;100.00;100901.59;5052539;28;20086;-60
2022/06/06 02:20:34;;;;;;;6.38;6.07;;;;;;;16.50;100.00;100900.97;5063247;28;20471;-60
2022/06/06 02:23:01;;;;;;;6.20;6.00;;;;;;;16.51;100.00;100906.13;5052007;28;20472;-61
2022/06/06 02:25:29;;;;;;;6.10;5.90;;;;;;;16.52;100.00;100897.06;5051395;28;20025;-60
2022/06/06 02:27:56;;;;;;;6.55;6.25;;;;;;;16.34;100.00;100894.16;5050496;28;20029;-60
2022/06/06 02:30:29;;;;;;;6.60;6.30;;;;;;;16.37;100.00;100900.94;5039877;28;20048;-60
2022/06/06 02:32:55;;;;;;;6.13;5.93;;;;;;;16.40;100.00;100895.19;5051426;28;20049;-60
2022/06/06 02:35:24;;;;;;;6.00;5.80;;;;;;;16.32;100.00;100898.91;5051974;28;20055;-60
2022/06/06 02:37:50;;;;;;;6.40;6.10;;;;;;;16.38;100.00;100898.09;5051636;28;20024;-60
2022/06/06 02:40:18;;;;;;;6.00;5.80;;;;;;;16.43;100.00;100894.78;5052230;28;20075;-61
2022/06/06 02:42:44;;;;;;;6.38;6.07;;;;;;;16.35;100.00;100895.81;5051586;28;20025;-61
2022/06/06 02:45:12;;;;;;;6.03;5.82;;;;;;;16.38;100.00;100902.59;5049966;28;20056;-61
2022/06/06 02:47:38;;;;;;;6.20;6.00;;;;;;;16.32;100.00;100895.41;5051835;28;20509;-60
2022/06/06 02:50:07;;;;;;;6.00;5.80;;;;;;;16.36;100.00;100901.97;5051827;28;20115;-60
2022/06/06 02:52:33;;;;;;;6.40;6.10;;;;;;;16.38;100.00;100906.13;5051587;28;20086;-60
2022/06/06 02:55:00;;;;;;;6.40;6.10;;;;;;;16.39;100.00;100902.41;5058442;28;20380;-61
2022/06/06 02:57:26;;;;;;;6.38;6.07;;;;;;;16.38;100.00;100903.44;5051205;28;20049;-60
2022/06/06 02:59:52;;;;;;;6.50;6.20;;;;;;;16.57;100.00;100904.47;5049862;28;20024;-60
2022/06/06 03:02:17;;;;;;;6.38;6.07;;;;;;;16.59;100.00;100907.78;5050565;28;20497;-60
2022/06/06 03:04:43;;;;;;;6.13;5.93;;;;;;;16.56;100.00;100902.84;5051559;28;20043;-60
2022/06/06 03:07:31;;;;;;;6.50;6.20;;;;;;;16.57;100.00;100907.16;5051760;28;20111;-59
2022/06/06 03:10:21;;;;;;;6.40;6.10;;;;;;;16.67;100.00;100914.78;5051722;28;20021;-61
2022/06/06 03:13:05;;;;;;;6.28;6.00;;;;;;;16.68;100.00;100908.41;5055998;28;20036;-59
2022/06/06 03:21:44;;;;;;;6.15;5.95;;;;;;;16.64;100.00;100908.00;5051091;28;20040;-59
2022/06/06 03:24:36;;;;;;;6.30;6.00;;;;;;;16.67;100.00;100909.44;5051470;28;20602;-62
2022/06/06 03:27:08;;;;;;;6.00;5.80;;;;;;;16.69;100.00;100918.09;5048930;28;20541;-62
2022/06/06 03:30:05;;;;;;;6.10;5.90;;;;;;;16.73;100.00;100917.50;5041581;28;20033;-59
2022/06/06 03:32:55;;;;;;;6.50;6.20;;;;;;;16.75;100.00;100912.78;5027298;28;20052;-60
2022/06/06 03:35:34;;;;;;;6.05;5.85;;;;;;;16.69;100.00;100916.28;5048227;28;20036;-60
2022/06/06 03:38:11;;;;;;;6.10;5.90;;;;;;;16.66;100.00;100916.63;5041115;28;20029;-60
2022/06/06 03:40:40;;;;;;;6.40;6.10;;;;;;;16.67;100.00;100925.50;5044083;28;20025;-60
2022/06/06 03:43:28;;;;;;;6.40;6.10;;;;;;;16.74;100.00;100924.50;5048165;28;20055;-60
2022/06/06 03:45:53;;;;;;;6.68;6.38;;;;;;;16.66;100.00;100922.00;5057897;28;20114;-60
2022/06/06 03:49:02;;;;;;;6.22;5.97;;;;;;;16.64;100.00;100926.75;5057479;28;20424;-61
2022/06/06 03:52:01;;;;;;;6.55;6.25;;;;;;;16.75;100.00;100926.19;5043561;28;20037;-60
2022/06/06 03:54:38;;;;;;;6.55;6.25;;;;;;;16.91;100.00;100924.13;5049532;28;20107;-60
2022/06/06 03:57:18;;;;;;;6.43;6.13;;;;;;;16.92;100.00;100931.13;5061307;28;20024;-60
2022/06/06 03:59:50;;;;;;;6.13;5.93;;;;;;;17.08;100.00;100922.66;5047001;28;20028;-60
2022/06/06 04:02:25;;;;;;;6.63;6.32;;;;;;;16.92;100.00;100931.94;5046518;28;20048;-59
2022/06/06 04:04:53;;;;;;;6.60;6.30;;;;;;;17.15;100.00;100926.16;5052977;28;20119;-59
2022/06/06 04:07:19;;;;;;;6.60;6.30;;;;;;;17.05;100.00;100926.59;5051340;28;20098;-61
2022/06/06 04:09:45;;;;;;;6.70;6.40;;;;;;;17.11;100.00;100933.81;5047190;28;20029;-61
2022/06/06 04:12:24;;;;;;;6.90;6.60;;;;;;;17.13;100.00;100937.09;5055221;28;20072;-60
2022/06/06 04:15:14;;;;;;;6.50;6.20;;;;;;;17.32;100.00;100939.94;5042725;28;20059;-59
2022/06/06 04:18:18;;;;;;;6.25;6.03;;;;;;;17.34;100.00;100940.59;5052044;28;20025;-61
2022/06/06 04:20:49;;;;;;;6.13;5.93;;;;;;;17.37;100.00;100948.19;5045634;28;20506;-60
2022/06/06 04:23:22;;;;;;;6.40;6.10;;;;;;;17.34;100.00;100949.44;5053785;28;20043;-62
2022/06/06 04:26:20;;;;;;;6.55;6.25;;;;;;;17.44;100.00;100951.69;5051160;28;20049;-61
2022/06/06 04:29:09;;;;;;;6.50;6.20;;;;;;;17.59;100.00;100954.13;5056932;28;20056;-63
2022/06/06 04:31:55;;;;;;;6.40;6.10;;;;;;;17.54;100.00;100960.13;5049488;28;20095;-62
2022/06/06 04:34:26;;;;;;;7.03;6.72;;;;;;;17.50;100.00;100964.28;5048352;28;20056;-61
2022/06/06 04:37:07;;;;;;;6.65;6.35;;;;;;;17.51;100.00;100949.81;5044954;28;20025;-60
2022/06/06 04:39:41;;;;;;;6.32;6.03;;;;;;;17.74;100.00;100970.84;5058574;28;20033;-63
2022/06/06 04:42:13;;;;;;;6.30;6.00;;;;;;;17.98;100.00;100968.47;5060916;28;20020;-60
2022/06/06 04:44:45;;;;;;;6.70;6.40;;;;;;;18.02;100.00;100973.22;5045943;28;20025;-61
2022/06/06 04:47:17;;;;;;;6.80;6.50;;;;;;;18.11;100.00;100971.13;5049837;28;20068;-61
2022/06/06 04:49:45;;;;;;;6.60;6.30;;;;;;;18.10;100.00;100977.53;5046940;28;20078;-60
2022/06/06 04:52:12;;;;;;;6.18;5.97;;;;;;;18.25;100.00;100978.06;5052077;28;20483;-60
2022/06/06 04:54:41;;;;;;;6.50;6.20;;;;;;;18.21;100.00;100975.00;5042871;28;20492;-60
2022/06/06 04:57:08;;;;;;;6.43;6.13;;;;;;;18.37;100.00;100980.94;5041342;28;20100;-61
2022/06/06 04:59:35;;;;;;;6.40;6.10;;;;;;;18.46;100.00;100987.69;5051576;28;20462;-60
2022/06/06 05:02:02;;;;;;;6.60;6.30;;;;;;;18.45;100.00;100986.03;5037814;28;20033;-61
2022/06/06 05:04:29;;;;;;;6.60;6.30;;;;;;;18.72;100.00;100992.09;5049004;28;20484;-61
2022/06/06 05:07:13;;;;;;;6.70;6.40;;;;;;;18.81;100.00;100998.88;5051242;28;20116;-61
2022/06/06 05:09:57;;;;;;;6.65;6.35;;;;;;;18.78;100.00;101000.13;5052046;28;20040;-60
2022/06/06 05:12:43;;;;;;;6.50;6.20;;;;;;;18.83;100.00;100994.09;5066937;28;20028;-60
2022/06/06 05:15:50;;;;;;;6.50;6.20;;;;;;;19.28;100.00;100989.38;5050132;28;20071;-62
2022/06/06 05:18:32;;;;;;;6.60;6.30;;;;;;;19.60;100.00;101003.59;4988496;28;20062;-60
2022/06/06 05:21:00;;;;;;;6.93;6.63;;;;;;;19.33;100.00;100996.81;5040853;28;20443;-61
2022/06/06 05:23:50;;;;;;;6.50;6.20;;;;;;;19.91;100.00;100995.63;5048341;28;20496;-62
2022/06/06 05:26:37;;;;;;;6.80;6.50;;;;;;;19.48;100.00;100997.28;5051818;28;20025;-62
2022/06/06 05:29:25;;;;;;;6.80;6.50;;;;;;;19.59;100.00;100996.56;5044072;28;20071;-60
2022/06/06 05:32:09;;;;;;;6.50;6.20;;;;;;;22.07;97.31;101010.50;5042961;28;20625;-61
2022/06/06 05:34:43;;;;;;;6.80;6.50;;;;;;;21.24;99.19;101007.03;5036542;28;20048;-61
2022/06/06 05:37:18;;;;;;;7.85;7.55;;;;;;;21.61;96.82;101011.41;5043744;28;20500;-62
2022/06/06 05:40:13;;;;;;;7.00;6.70;;;;;;;22.39;91.72;101010.09;5043820;28;20048;-61
2022/06/06 05:42:59;;;;;;;6.70;6.40;;;;;;;23.95;82.06;101008.34;5024198;28;20049;-61
2022/06/06 05:45:39;;;;;;;7.13;6.82;;;;;;;26.73;67.80;101019.91;5049748;28;20060;-61
2022/06/06 05:48:46;;;;;;;7.28;6.97;;;;;;;28.96;60.87;101023.09;5044243;28;20032;-62
2022/06/06 05:51:48;;;;;;;7.20;6.90;;;;;;;30.55;53.99;101017.50;5045514;28;20485;-62
2022/06/06 05:54:35;;;;;;;7.30;7.00;;;;;;;31.18;46.70;101027.22;5036144;28;20017;-63
2022/06/06 05:57:36;;;;;;;7.25;6.95;;;;;;;32.16;45.12;101014.91;5047096;28;20118;-62
2022/06/06 06:00:09;;;;;;;7.60;7.30;;;;;;;32.71;41.28;101022.22;5047398;28;20033;-63
2022/06/06 06:03:01;;;;;;;7.43;7.13;;;;;;;32.14;42.51;101028.16;5046209;28;20429;-62
2022/06/06 06:05:43;;;;;;;7.35;7.05;;;;;;;32.57;41.02;101029.72;5043374;28;20063;-63
2022/06/06 06:08:20;;;;;;;7.40;7.10;;;;;;;33.51;38.38;101031.53;5050137;28;20136;-63
2022/06/06 06:10:51;;;;;;;7.40;7.10;;;;;;;34.24;37.47;101032.75;5060007;28;20036;-63
2022/06/06 06:13:44;;;;;;;7.47;7.18;;;;;;;34.18;37.06;101022.19;5044832;28;20032;-63
2022/06/06 06:16:13;;;;;;;7.25;6.95;;;;;;;33.90;36.76;101024.41;5046781;28;20028;-62
2022/06/06 06:18:41;;;;;;;7.40;7.10;;;;;;;35.52;32.93;101028.59;5045486;28;20032;-62
2022/06/06 06:21:10;;;;;;;7.05;6.75;;;;;;;31.93;38.33;101018.72;5044104;28;20052;-63
2022/06/06 06:23:46;;;;;;;7.00;6.70;;;;;;;29.75;43.28;101021.00;5054861;28;20503;-62
2022/06/06 06:26:14;;;;;;;7.00;6.70;;;;;;;30.53;41.58;101020.53;5040498;28;20040;-62
2022/06/06 06:28:41;;;;;;;7.10;6.80;;;;;;;34.04;34.24;101016.81;5047798;28;20032;-62
2022/06/06 06:31:24;;;;;;;7.10;6.80;;;;;;;34.03;34.91;101020.72;5047871;28;20032;-60
2022/06/06 06:34:05;;;;;;;7.13;6.82;;;;;;;35.43;33.15;101029.47;5041516;28;20452;-62
2022/06/06 06:36:54;;;;;;;7.30;7.00;;;;;;;34.71;32.29;101010.91;5042716;28;20032;-62
2022/06/06 06:39:38;;;;;;;7.10;6.80;;;;;;;34.10;33.12;101009.22;5046498;28;20502;-61
2022/06/06 06:42:22;;;;;;;7.15;6.85;;;;;;;35.41;32.05;101014.38;5045047;28;20036;-61
2022/06/06 06:44:54;;;;;;;7.20;6.90;;;;;;;36.08;30.36;101005.28;5041914;28;20127;-62
2022/06/06 06:47:31;;;;;;;7.18;6.88;;;;;;;36.08;30.59;101010.00;5048479;28;20044;-63
2022/06/06 06:50:20;;;;;;;7.00;6.70;;;;;;;30.74;37.94;101001.09;5046977;28;20029;-61
2022/06/06 06:53:07;;;;;;;7.30;7.00;;;;;;;27.66;44.77;100995.06;5045912;28;20048;-62
2022/06/06 06:56:06;;;;;;;7.20;6.90;;;;;;;30.54;38.96;100994.78;5044639;28;20036;-62
2022/06/06 06:58:45;;;;;;;7.20;6.90;;;;;;;27.98;44.21;100991.16;5040710;28;20128;-61
2022/06/06 07:01:19;;;;;;;7.30;7.00;;;;;;;33.08;34.03;100995.50;5043846;28;20106;-63
2022/06/06 07:10:20;;;;;;;7.30;7.00;;;;;;;26.18;47.28;100986.84;5043945;28;20034;-62
2022/06/06 07:13:30;;;;;;;7.13;6.82;;;;;;;28.45;41.75;100981.69;5042375;28;20021;-62
2022/06/06 07:16:08;;;;;;;7.20;6.90;;;;;;;30.10;38.00;100986.94;5041369;28;20029;-61
2022/06/06 07:18:37;;;;;;;7.13;6.82;;;;;;;28.55;39.72;100987.06;5040122;28;20047;-62
2022/06/06 07:21:06;;;;;;;7.20;6.90;;;;;;;30.71;36.72;100985.28;5047101;28;20029;-62
2022/06/06 07:23:38;;;;;;;6.88;6.57;;;;;;;28.35;39.38;100977.06;5059793;28;20515;-62
2022/06/06 07:26:04;;;;;;;7.30;7.00;;;;;;;30.30;34.92;100985.84;5055873;28;20040;-61
2022/06/06 07:28:30;;;;;;;7.25;6.95;;;;;;;27.69;38.52;100980.09;5051650;28;20059;-63
2022/06/06 07:31:11;;;;;;;7.40;7.10;;;;;;;25.23;43.65;100975.19;5054613;28;20032;-63
2022/06/06 07:34:01;;;;;;;7.35;7.05;;;;;;;26.98;38.28;100983.72;5050433;28;20576;-63
2022/06/06 07:36:42;;;;;;;6.93;6.63;;;;;;;25.26;43.87;100980.09;5055891;28;20039;-63
2022/06/06 07:39:23;;;;;;;7.00;6.70;;;;;;;26.23;42.51;100968.91;5055356;28;20029;-63
2022/06/06 07:42:23;;;;;;;7.05;6.75;;;;;;;27.23;40.63;100980.97;5046408;28;20032;-63
2022/06/06 07:45:09;;;;;;;7.20;6.90;;;;;;;28.69;37.88;100982.59;5053393;28;20132;-62
2022/06/06 07:48:19;;;;;;;7.20;6.90;;;;;;;25.05;43.47;100995.44;5053835;28;20029;-63
2022/06/06 07:50:57;;;;;;;7.00;6.70;;;;;;;26.73;40.09;100979.06;5041001;28;20062;-63
2022/06/06 07:53:31;;;;;;;7.30;7.00;;;;;;;25.37;41.36;100980.16;5043658;28;20025;-62
2022/06/06 07:56:06;;;;;;;6.70;6.40;;;;;;;26.57;39.50;100980.97;5046955;28;20116;-62
2022/06/06 07:59:02;;;;;;;7.20;6.90;;;;;;;25.86;41.64;100987.00;5049759;28;20041;-62
2022/06/06 08:02:05;;;;;;;7.30;7.00;;;;;;;24.36;43.58;100987.13;5054859;28;20112;-61
2022/06/06 08:04:54;;;;;;;7.00;6.70;;;;;;;24.67;44.21;100974.69;5053072;28;20122;-64
2022/06/06 08:07:31;;;;;;;7.00;6.70;;;;;;;26.57;39.57;100980.16;5054810;28;20103;-64
2022/06/06 08:10:35;;;;;;;7.07;6.78;;;;;;;26.70;40.62;100966.81;5051123;28;20399;-63
2022/06/06 08:13:03;;;;;;;6.70;6.40;;;;;;;23.75;46.93;100980.16;5036151;28;20041;-64
2022/06/06 08:16:03;;;;;;;6.97;6.68;;;;;;;24.02;47.11;100959.38;5054002;28;20037;-64
2022/06/06 08:19:00;;;;;;;7.00;6.70;;;;;;;24.83;44.97;100956.69;5048473;28;20162;-65
2022/06/06 08:21:36;;;;;;;6.78;6.47;;;;;;;24.18;44.96;100955.75;5057012;28;20040;-63
2022/06/06 08:24:08;;;;;;;7.38;7.07;;;;;;;25.65;42.62;100959.97;5039706;28;20036;-63
2022/06/06 08:26:37;;;;;;;7.28;6.97;;;;;;;26.59;38.85;100961.66;5056911;28;20029;-64
2022/06/06 08:29:05;;;;;;;6.85;6.55;;;;;;;25.59;41.62;100962.63;5060011;28;20024;-63
2022/06/06 08:31:31;;;;;;;7.30;7.00;;;;;;;28.01;38.24;100957.88;5050886;28;20036;-63
2022/06/06 08:33:56;;;;;;;7.00;6.70;;;;;;;27.48;37.80;100961.06;5059408;28;20028;-64
2022/06/06 08:36:40;;;;;;;7.10;6.80;;;;;;;25.26;38.79;100962.97;5045517;28;20025;-63
2022/06/06 08:39:18;;;;;;;7.27;6.97;;;;;;;25.49;40.10;100984.34;5045382;28;20020;-62
2022/06/06 08:42:02;;;;;;;7.10;6.80;;;;;;;26.03;39.00;100984.06;5048531;28;20297;-62
2022/06/06 08:44:44;;;;;;;7.18;6.88;;;;;;;24.79;41.07;100969.13;5050931;28;20044;-62
2022/06/06 08:47:29;;;;;;;6.97;6.68;;;;;;;25.32;41.91;100960.03;5050352;28;20496;-63
2022/06/06 08:53:01;;;;;;;7.03;6.72;;;;;;;23.90;40.78;100978.47;5055813;28;19920;-63
2022/06/06 08:55:41;;;;;;;7.20;6.90;;;;;;;23.69;41.26;100973.84;5044102;28;20049;-62
2022/06/06 08:58:51;;;;;;;7.00;6.70;;;;;;;24.51;41.71;100964.78;5038915;28;20053;-63
2022/06/06 09:01:46;;;;;;;6.88;6.57;;;;;;;25.00;40.66;100964.69;4993697;28;20128;-64
2022/06/06 09:04:43;;;;;;;6.93;6.63;;;;;;;24.59;42.28;100952.66;5046952;28;20063;-63
2022/06/06 09:07:27;;;;;;;7.03;6.72;;;;;;;24.75;42.31;100960.69;5042458;28;20492;-63
2022/06/06 09:10:20;;;;;;;6.80;6.50;;;;;;;24.51;42.52;100967.50;5053640;28;20515;-62
2022/06/06 09:13:07;;;;;;;6.80;6.50;;;;;;;23.96;44.60;100958.47;5041433;28;20024;-62
2022/06/06 09:15:47;;;;;;;6.70;6.40;;;;;;;22.99;46.22;100961.72;5051261;28;20112;-63
2022/06/06 09:18:24;;;;;;;6.70;6.40;;;;;;;24.06;44.03;100955.06;5058843;28;20143;-63
2022/06/06 09:21:05;;;;;;;6.88;6.57;;;;;;;25.26;42.32;100950.22;5059425;28;20032;-63
2022/06/06 09:23:42;;;;;;;6.70;6.40;;;;;;;24.21;43.81;100951.69;5054376;28;22791;-63
2022/06/06 09:26:23;;;;;;;6.80;6.50;;;;;;;23.55;47.06;100957.09;5048419;28;20037;-62
2022/06/06 09:29:07;;;;;;;6.53;6.22;;;;;;;22.85;46.56;100961.22;5063120;28;20086;-64
2022/06/06 09:32:08;;;;;;;6.90;6.60;;;;;;;22.65;47.22;100954.59;5052151;28;20025;-63
2022/06/06 09:34:58;;;;;;;6.90;6.60;;;;;;;23.36;46.04;100953.88;5021408;28;20044;-63
2022/06/06 09:37:32;;;;;;;6.90;6.60;;;;;;;24.34;45.01;100956.75;5050774;28;20492;-63
2022/06/06 09:40:10;;;;;;;7.00;6.70;;;;;;;24.92;42.22;100952.41;5048077;28;20412;-63
2022/06/06 09:42:47;;;;;;;6.82;6.53;;;;;;;25.66;40.66;100946.09;5042989;28;20048;-63
2022/06/06 09:45:30;;;;;;;6.93;6.63;;;;;;;27.49;37.96;100943.63;5055428;28;20040;-63
2022/06/06 09:48:43;;;;;;;6.80;6.50;;;;;;;25.51;40.76;100937.88;5057887;28;20043;-64
2022/06/06 09:51:46;;;;;;;7.15;6.85;;;;;;;24.46;41.66;100940.34;5036737;28;20289;-65
2022/06/06 09:59:58;;;;;;;7.10;6.80;;;;;;;23.79;41.54;100933.31;5054517;28;20043;-64
2022/06/06 10:02:39;;;;;;;6.53;6.22;;;;;;;23.90;42.67;100945.94;5037314;28;20116;-65
2022/06/06 10:05:37;;;;;;;7.22;6.93;;;;;;;24.66;42.51;100950.53;5045681;28;20037;-64
2022/06/06 10:08:27;;;;;;;7.00;6.70;;;;;;;24.50;42.00;100944.16;4988015;28;20038;-63
2022/06/06 10:11:10;;;;;;;7.10;6.80;;;;;;;25.23;41.05;100941.78;5047086;28;20025;-62
2022/06/06 10:13:51;;;;;;;7.10;6.80;;;;;;;25.06;41.95;100937.34;5045670;28;20028;-62
2022/06/06 10:16:33;;;;;;;7.30;7.00;;;;;;;25.40;40.38;100938.88;5046684;28;20519;-63
2022/06/06 10:19:04;;;;;;;7.00;6.70;;;;;;;25.86;39.39;100950.84;5046754;28;20455;-64
2022/06/06 10:21:51;;;;;;;7.13;6.82;;;;;;;25.70;39.65;100941.75;5050247;28;20442;-61
2022/06/06 10:24:48;;;;;;;6.95;6.65;;;;;;;23.63;44.37;100939.63;5033431;28;20029;-63
2022/06/06 10:27:31;;;;;;;6.80;6.50;;;;;;;25.19;41.67;100941.50;5036123;28;20089;-62
2022/06/06 10:30:11;;;;;;;6.88;6.57;;;;;;;23.84;43.35;100943.41;5039713;28;20067;-62
2022/06/06 10:33:02;;;;;;;6.85;6.55;;;;;;;23.64;42.71;100941.25;5042930;28;20416;-61
2022/06/06 10:36:02;;;;;;;6.70;6.40;;;;;;;24.11;42.00;100940.75;5025606;28;20045;-63
2022/06/06 10:38:58;;;;;;;6.88;6.57;;;;;;;24.23;42.18;100939.50;5051051;28;20034;-64
2022/06/06 10:41:48;;;;;;;6.93;6.63;;;;;;;24.27;42.58;100937.13;5050955;28;20357;-62
2022/06/06 10:44:29;;;;;;;6.70;6.40;;;;;;;24.11;42.98;100946.19;5048203;28;20070;-63
2022/06/06 10:47:07;;;;;;;6.95;6.65;;;;;;;23.96;42.42;100942.22;5055995;28;20429;-63
2022/06/06 10:49:32;;;;;;;7.00;6.70;;;;;;;23.74;42.39;100941.41;5050774;28;20028;-63
2022/06/06 10:52:13;;;;;;;6.90;6.60;;;;;;;24.86;40.73;100948.00;5055166;28;20035;-63
2022/06/06 10:54:48;;;;;;;6.80;6.50;;;;;;;24.52;41.83;100937.41;5044540;28;20546;-63
2022/06/06 10:57:51;;;;;;;7.00;6.70;;;;;;;24.83;40.73;100936.88;5044892;28;20029;-65
2022/06/06 11:00:29;;;;;;;7.07;6.78;;;;;;;26.15;39.01;100938.44;5056250;28;20082;-62
2022/06/06 11:03:09;;;;;;;6.90;6.60;;;;;;;26.33;37.43;100928.94;5052269;28;20547;-64
2022/06/06 11:06:06;;;;;;;6.90;6.60;;;;;;;26.53;36.43;100930.09;5052855;28;20063;-62
2022/06/06 11:08:38;;;;;;;6.80;6.50;;;;;;;26.03;37.82;100928.88;5051558;28;20045;-64
2022/06/06 11:11:37;;;;;;;7.00;6.70;;;;;;;25.32;39.19;100927.44;5047096;28;20048;-63
2022/06/06 11:14:12;;;;;;;6.90;6.60;;;;;;;24.87;39.09;100930.66;5037936;28;20060;-64
2022/06/06 11:16:40;;;;;;;7.00;6.70;;;;;;;24.94;39.30;100922.28;5041587;28;20029;-64
2022/06/06 11:19:33;;;;;;;6.97;6.68;;;;;;;26.41;37.58;100931.16;5047187;28;20040;-64
2022/06/06 11:22:16;;;;;;;6.70;6.40;;;;;;;25.73;36.56;100935.84;5041854;28;20069;-65
2022/06/06 11:24:51;;;;;;;6.90;6.60;;;;;;;26.33;36.15;100928.94;5042844;28;20144;-63
2022/06/06 11:27:35;;;;;;;6.70;6.40;;;;;;;26.94;34.72;100920.00;5046969;28;20112;-63
2022/06/06 11:30:17;;;;;;;6.93;6.63;;;;;;;26.19;36.03;100927.81;5046441;28;20017;-64
2022/06/06 11:32:45;;;;;;;6.93;6.63;;;;;;;25.37;37.94;100928.56;5038711;28;20033;-63
2022/06/06 11:35:32;;;;;;;6.70;6.40;;;;;;;26.27;36.43;100929.19;5041958;28;20041;-62
2022/06/06 11:38:07;;;;;;;6.80;6.50;;;;;;;26.31;36.59;100930.31;5046107;28;20024;-61
2022/06/06 11:40:47;;;;;;;6.75;6.45;;;;;;;26.24;37.10;100935.19;5051338;28;20067;-63
2022/06/06 11:43:40;;;;;;;6.50;6.20;;;;;;;25.16;38.26;100923.00;5047713;28;20033;-61
2022/06/06 11:46:28;;;;;;;6.82;6.53;;;;;;;25.02;39.26;100916.38;5042312;28;20526;-62
2022/06/06 11:49:18;;;;;;;6.80;6.50;;;;;;;26.00;37.96;100922.09;5046015;28;20032;-61
2022/06/06 11:52:28;;;;;;;6.90;6.60;;;;;;;25.54;38.83;100926.47;5049303;28;20020;-62
2022/06/06 11:55:17;;;;;;;6.97;6.68;;;;;;;24.61;41.30;100923.38;5029953;28;20041;-61
2022/06/06 11:57:51;;;;;;;6.90;6.60;;;;;;;23.86;40.55;100923.13;5041667;28;20460;-63
2022/06/06 12:00:41;;;;;;;6.85;6.55;;;;;;;23.50;41.86;100927.22;5050443;28;20158;-62
2022/06/06 12:03:28;;;;;;;6.90;6.60;;;;;;;23.82;41.11;100923.91;5047962;28;20496;-63
2022/06/06 12:06:51;;;;;;;6.88;6.57;;;;;;;23.93;41.27;100921.03;5048443;28;20840;-63
2022/06/06 12:09:25;;;;;;;7.05;6.75;;;;;;;24.10;41.81;100917.44;5004271;28;20042;-64
2022/06/06 12:12:03;;;;;;;7.03;6.72;;;;;;;23.73;42.41;100918.09;5007614;28;20037;-65
2022/06/06 12:14:41;;;;;;;7.20;6.90;;;;;;;24.05;42.04;100910.06;5045449;28;20063;-64
2022/06/06 12:17:44;;;;;;;7.03;6.72;;;;;;;23.95;42.83;100910.78;5056714;28;20021;-63
2022/06/06 12:20:40;;;;;;;6.95;6.65;;;;;;;24.60;41.67;100908.16;5048316;28;20078;-63
2022/06/06 12:23:17;;;;;;;6.95;6.65;;;;;;;23.77;42.75;100905.69;5033375;28;20041;-64
2022/06/06 12:25:52;;;;;;;6.75;6.45;;;;;;;23.80;42.87;100901.66;5057825;28;20029;-65
2022/06/06 12:28:28;;;;;;;6.68;6.38;;;;;;;23.61;43.54;100907.38;5056561;28;20044;-64
2022/06/06 12:31:22;;;;;;;6.70;6.40;;;;;;;24.18;43.63;100898.81;5055164;28;20025;-63
2022/06/06 12:34:02;;;;;;;6.97;6.67;;;;;;;23.90;43.08;100894.47;5049276;28;20496;-64
2022/06/06 12:36:45;;;;;;;7.10;6.80;;;;;;;24.48;41.90;100892.91;5040499;28;20030;-64
2022/06/06 12:39:39;;;;;;;6.88;6.57;;;;;;;24.14;42.78;100886.03;5045033;28;20051;-64
2022/06/06 12:42:29;;;;;;;7.00;6.70;;;;;;;24.07;41.79;100880.81;5041238;28;20056;-65
2022/06/06 12:45:07;;;;;;;7.07;6.78;;;;;;;23.75;41.58;100878.03;5054926;28;20500;-64